Time;durP1;ratioP1;P1;durP2;ratioP2;P2;SDS_P1;SDS_P2;PMS_P1;PMS_P2;Temp;Humidity;BMP_temperature;BMP_pressure;BME280_temperature;BME280_humidity;BME280_pressure;Samples;Min_cycle;Max_cycle;Signal;HPM_P1;HPM_P2
2020/12/04 00:02:07;;;;;;;49.60;26.52;;;-0.20;99.90;;;;;;5058921;28;20217;-79
2020/12/04 00:04:33;;;;;;;46.30;24.67;;;-0.20;99.90;;;;;;5058432;28;20203;-79
2020/12/04 00:07:01;;;;;;;43.03;24.30;;;-0.20;99.90;;;;;;5059850;28;20290;-79
2020/12/04 00:09:28;;;;;;;47.00;24.88;;;-0.30;99.90;;;;;;5063067;28;20203;-80
2020/12/04 00:11:54;;;;;;;47.40;25.60;;;-0.30;99.90;;;;;;5063038;28;20225;-79
2020/12/04 00:14:21;;;;;;;45.60;25.60;;;-0.40;99.90;;;;;;5061906;28;20192;-79
2020/12/04 00:16:47;;;;;;;43.60;23.33;;;-0.40;99.90;;;;;;5060219;28;20294;-78
2020/12/04 00:19:14;;;;;;;47.65;24.95;;;-0.30;99.90;;;;;;5060263;28;20302;-80
2020/12/04 00:21:41;;;;;;;44.03;24.30;;;-0.30;99.90;;;;;;5062165;28;20218;-80
2020/12/04 00:24:07;;;;;;;42.10;22.27;;;-0.40;99.90;;;;;;5072650;28;20198;-80
2020/12/04 00:26:37;;;;;;;41.03;22.75;;;-0.30;99.90;;;;;;5066858;28;20227;-78
2020/12/04 00:29:04;;;;;;;41.42;20.98;;;-0.40;99.90;;;;;;5059834;28;20195;-79
2020/12/04 00:31:31;;;;;;;41.78;24.35;;;-0.40;99.90;;;;;;5060914;28;20214;-79
2020/12/04 00:33:58;;;;;;;36.60;21.52;;;-0.30;99.90;;;;;;5058539;28;20203;-79
2020/12/04 00:36:28;;;;;;;39.30;20.60;;;-0.30;99.90;;;;;;5058396;28;20282;-79
2020/12/04 00:38:55;;;;;;;39.75;20.83;;;-0.40;99.90;;;;;;5059373;28;20203;-79
2020/12/04 00:41:21;;;;;;;43.40;22.27;;;-0.30;99.90;;;;;;5059276;28;20203;-79
2020/12/04 00:43:47;;;;;;;48.85;24.55;;;-0.40;99.90;;;;;;5059506;28;20199;-79
2020/12/04 00:46:14;;;;;;;35.25;21.88;;;-0.40;99.90;;;;;;5057920;28;20229;-78
2020/12/04 00:48:40;;;;;;;45.40;23.75;;;-0.40;99.90;;;;;;5058370;28;20290;-79
2020/12/04 00:51:06;;;;;;;45.92;23.77;;;-0.40;99.90;;;;;;5059403;28;20203;-81
2020/12/04 00:53:34;;;;;;;39.65;22.25;;;-0.40;99.90;;;;;;5060066;28;20203;-80
2020/12/04 00:56:00;;;;;;;41.47;21.85;;;-0.40;99.90;;;;;;5058448;28;20261;-80
2020/12/04 00:58:26;;;;;;;40.17;21.60;;;-0.40;99.90;;;;;;5063303;28;20246;-79
2020/12/04 01:00:52;;;;;;;38.83;22.33;;;-0.40;99.90;;;;;;5063637;28;20357;-79
2020/12/04 01:03:19;;;;;;;40.38;21.85;;;-0.40;99.90;;;;;;5067734;28;20207;-80
2020/12/04 01:05:45;;;;;;;42.92;20.83;;;-0.40;99.90;;;;;;5068677;28;20293;-79
2020/12/04 01:08:12;;;;;;;40.80;22.48;;;-0.50;99.90;;;;;;5074256;28;20226;-79
2020/12/04 01:10:39;;;;;;;36.13;20.65;;;-0.50;99.90;;;;;;5067987;28;20230;-79
2020/12/04 01:13:05;;;;;;;38.75;21.52;;;-0.60;99.90;;;;;;5058157;28;20223;-79
2020/12/04 01:15:32;;;;;;;38.65;21.15;;;-0.60;99.90;;;;;;5061303;28;20662;-80
2020/12/04 01:17:59;;;;;;;45.67;22.80;;;-0.60;99.90;;;;;;5063269;28;20555;-80
2020/12/04 01:20:25;;;;;;;36.58;20.08;;;-0.60;99.90;;;;;;5062745;28;20279;-79
2020/12/04 01:22:51;;;;;;;37.42;20.08;;;-0.60;99.90;;;;;;5061833;28;20635;-80
2020/12/04 01:25:18;;;;;;;33.45;19.08;;;-0.60;99.90;;;;;;5058544;28;20619;-79
2020/12/04 01:27:45;;;;;;;38.00;19.85;;;-0.60;99.90;;;;;;5057109;28;20297;-79
2020/12/04 01:30:11;;;;;;;34.22;20.35;;;-0.50;99.90;;;;;;5056830;28;20215;-79
2020/12/04 01:32:38;;;;;;;42.85;22.80;;;-0.50;99.90;;;;;;5057143;28;20277;-80
2020/12/04 01:35:04;;;;;;;30.70;18.98;;;-0.50;99.90;;;;;;5056820;28;20203;-79
2020/12/04 01:37:31;;;;;;;34.60;19.48;;;-0.60;99.90;;;;;;5059543;28;20233;-80
2020/12/04 01:39:57;;;;;;;35.25;19.95;;;-0.50;99.90;;;;;;5058139;28;20221;-80
2020/12/04 01:42:23;;;;;;;35.70;19.33;;;-0.60;99.90;;;;;;5059113;28;20257;-80
2020/12/04 01:44:52;;;;;;;34.50;19.00;;;-0.60;99.90;;;;;;5057803;28;20261;-80
2020/12/04 01:47:19;;;;;;;38.63;20.38;;;-0.60;99.90;;;;;;5057939;28;20225;-79
2020/12/04 01:49:45;;;;;;;41.38;20.65;;;-0.60;99.90;;;;;;5057630;28;20543;-80
2020/12/04 01:52:12;;;;;;;39.58;20.02;;;-0.60;99.90;;;;;;5056324;28;20207;-80
2020/12/04 01:54:40;;;;;;;39.95;19.40;;;-0.50;99.90;;;;;;5056221;28;20230;-80
2020/12/04 01:57:06;;;;;;;37.70;21.77;;;-0.50;99.90;;;;;;5056450;28;20262;-80
2020/12/04 01:59:33;;;;;;;43.58;20.73;;;-0.40;99.90;;;;;;5058613;28;20223;-79
2020/12/04 02:02:09;;;;;;;34.90;20.95;;;-0.50;99.90;;;;;;5056175;28;20302;-78
2020/12/04 02:04:35;;;;;;;39.85;20.88;;;-0.50;99.90;;;;;;5057125;28;20627;-79
2020/12/04 02:07:07;;;;;;;38.90;21.23;;;-0.50;99.90;;;;;;5057203;28;20226;-80
2020/12/04 02:09:43;;;;;;;39.70;21.65;;;-0.50;99.90;;;;;;5058248;28;20194;-80
2020/12/04 02:12:15;;;;;;;38.83;20.30;;;-0.40;99.90;;;;;;5057240;28;20237;-80
2020/12/04 02:14:42;;;;;;;37.67;21.63;;;-0.40;99.90;;;;;;5056194;28;20187;-80
2020/12/04 02:17:10;;;;;;;37.50;22.05;;;-0.40;99.90;;;;;;5056997;28;20317;-79
2020/12/04 02:19:37;;;;;;;38.45;21.70;;;-0.40;99.90;;;;;;5058256;28;20313;-81
2020/12/04 02:22:05;;;;;;;38.15;22.05;;;-0.30;99.90;;;;;;5058290;28;20202;-80
2020/12/04 02:24:31;;;;;;;38.40;21.90;;;-0.40;99.90;;;;;;5057382;28;20683;-80
2020/12/04 02:26:58;;;;;;;37.08;21.92;;;-0.30;99.90;;;;;;5057360;28;20730;-80
2020/12/04 02:29:26;;;;;;;34.72;22.55;;;-0.30;99.90;;;;;;5056629;28;20202;-79
2020/12/04 02:31:52;;;;;;;38.70;20.77;;;-0.30;99.90;;;;;;5056820;28;20194;-79
2020/12/04 02:34:19;;;;;;;41.70;22.02;;;-0.20;99.90;;;;;;5057365;28;20253;-80
2020/12/04 02:36:46;;;;;;;37.55;21.73;;;-0.20;99.90;;;;;;5058218;28;20301;-80
2020/12/04 02:39:13;;;;;;;33.28;22.38;;;-0.20;99.90;;;;;;5056441;28;20258;-79
2020/12/04 02:41:45;;;;;;;38.55;23.33;;;-0.30;99.90;;;;;;5056708;28;20207;-80
2020/12/04 02:44:11;;;;;;;39.08;22.30;;;-0.30;99.90;;;;;;5058685;28;20630;-79
2020/12/04 02:46:38;;;;;;;41.70;23.38;;;-0.30;99.90;;;;;;5056640;28;20313;-79
2020/12/04 02:49:05;;;;;;;40.42;23.42;;;-0.30;99.90;;;;;;5056569;28;20689;-79
2020/12/04 02:51:31;;;;;;;34.05;21.90;;;-0.30;99.90;;;;;;5058119;28;20207;-80
2020/12/04 02:53:57;;;;;;;44.38;23.85;;;-0.40;99.90;;;;;;5060313;28;20241;-80
2020/12/04 02:56:25;;;;;;;41.50;23.40;;;-0.50;99.90;;;;;;5075715;22;20262;-79
2020/12/04 02:58:51;;;;;;;37.95;21.77;;;-0.50;99.90;;;;;;5054911;28;20219;-80
2020/12/04 03:01:17;;;;;;;46.20;25.65;;;-0.50;99.90;;;;;;5059944;28;20207;-79
2020/12/04 03:03:43;;;;;;;51.35;24.58;;;-0.50;99.90;;;;;;5070214;28;20273;-78
2020/12/04 03:06:10;;;;;;;44.38;24.27;;;-0.50;99.90;;;;;;5064276;28;20237;-80
2020/12/04 03:08:36;;;;;;;38.03;22.98;;;-0.50;99.90;;;;;;5062659;28;20278;-79
2020/12/04 03:11:02;;;;;;;46.08;24.83;;;-0.50;99.90;;;;;;5073876;28;20226;-79
2020/12/04 03:13:29;;;;;;;35.60;21.38;;;-0.40;99.90;;;;;;5071546;28;20656;-80
2020/12/04 03:15:56;;;;;;;46.10;23.70;;;-0.50;99.90;;;;;;5061961;28;20200;-80
2020/12/04 03:18:22;;;;;;;36.88;22.05;;;-0.50;99.90;;;;;;5057183;28;20313;-80
2020/12/04 03:20:48;;;;;;;36.28;23.15;;;-0.40;99.90;;;;;;5056792;28;20246;-79
2020/12/04 03:23:15;;;;;;;38.15;21.92;;;-0.40;99.90;;;;;;5056349;28;20562;-80
2020/12/04 03:25:41;;;;;;;46.10;23.20;;;-0.40;99.90;;;;;;5056560;28;20217;-78
2020/12/04 03:28:08;;;;;;;43.05;24.70;;;-0.40;99.90;;;;;;5056456;28;20394;-80
2020/12/04 03:30:35;;;;;;;40.35;23.65;;;-0.40;99.90;;;;;;5057660;28;20202;-80
2020/12/04 03:33:01;;;;;;;42.40;24.70;;;-0.50;99.90;;;;;;5057666;28;20199;-79
2020/12/04 03:35:27;;;;;;;40.30;22.65;;;-0.40;99.90;;;;;;5057962;28;20199;-80
2020/12/04 03:37:53;;;;;;;36.75;22.13;;;-0.50;99.90;;;;;;5065741;28;20223;-80
2020/12/04 03:40:20;;;;;;;35.47;22.98;;;-0.40;99.90;;;;;;5060033;28;20227;-80
2020/12/04 03:42:46;;;;;;;38.03;23.10;;;-0.40;99.90;;;;;;5059820;28;20214;-80
2020/12/04 03:45:12;;;;;;;41.65;24.67;;;-0.30;99.90;;;;;;5060493;28;20545;-80
2020/12/04 03:47:39;;;;;;;39.53;22.98;;;-0.30;99.90;;;;;;5060248;28;20229;-80
2020/12/04 03:50:06;;;;;;;39.78;22.13;;;-0.30;99.90;;;;;;5060678;28;20290;-78
2020/12/04 03:52:33;;;;;;;38.67;22.25;;;-0.30;99.90;;;;;;5060282;28;20241;-80
2020/12/04 03:54:59;;;;;;;44.40;24.88;;;-0.30;99.90;;;;;;5060166;28;20199;-79
2020/12/04 03:57:25;;;;;;;39.28;22.15;;;-0.30;99.90;;;;;;5059966;28;20241;-79
2020/12/04 03:59:52;;;;;;;36.47;21.33;;;-0.30;99.90;;;;;;5065032;28;20703;-79
2020/12/04 04:02:18;;;;;;;38.53;21.38;;;-0.20;99.90;;;;;;5073312;28;20213;-80
2020/12/04 04:04:45;;;;;;;40.10;22.92;;;-0.30;99.90;;;;;;5075888;28;20263;-80
2020/12/04 04:07:11;;;;;;;49.05;24.60;;;-0.20;99.90;;;;;;5069728;28;20233;-79
2020/12/04 04:09:38;;;;;;;40.40;23.30;;;-0.20;99.90;;;;;;5064561;28;20260;-80
2020/12/04 04:12:05;;;;;;;42.80;21.90;;;-0.20;99.90;;;;;;5067912;28;20238;-80
2020/12/04 04:14:32;;;;;;;35.80;24.50;;;-0.20;99.90;;;;;;5068599;28;20207;-81
2020/12/04 04:16:58;;;;;;;38.80;22.60;;;-0.30;99.90;;;;;;5077881;28;20286;-79
2020/12/04 04:19:24;;;;;;;39.97;23.42;;;-0.30;99.90;;;;;;5076163;28;20238;-79
2020/12/04 04:21:51;;;;;;;44.00;25.08;;;-0.40;99.90;;;;;;5077074;28;20267;-80
2020/12/04 04:24:18;;;;;;;36.65;21.77;;;-0.30;99.90;;;;;;5074828;28;20199;-79
2020/12/04 04:26:44;;;;;;;37.33;21.13;;;-0.30;99.90;;;;;;5075628;28;20230;-78
2020/12/04 04:29:11;;;;;;;36.00;21.60;;;-0.20;99.90;;;;;;5078132;28;20203;-80
2020/12/04 04:31:37;;;;;;;39.30;22.33;;;-0.20;99.90;;;;;;5079589;28;20168;-79
2020/12/04 04:34:03;;;;;;;39.17;22.80;;;-0.20;99.90;;;;;;5078379;28;20211;-79
2020/12/04 04:36:29;;;;;;;38.10;22.27;;;-0.20;99.90;;;;;;5071547;28;20699;-79
2020/12/04 04:38:57;;;;;;;36.80;22.55;;;-0.20;99.90;;;;;;5066571;28;20270;-80
2020/12/04 04:41:23;;;;;;;41.92;24.13;;;-0.20;99.90;;;;;;5065393;28;20638;-79
2020/12/04 04:43:49;;;;;;;37.40;22.35;;;-0.20;99.90;;;;;;5077654;28;20225;-78
2020/12/04 04:46:20;;;;;;;37.08;23.05;;;-0.20;99.90;;;;;;5079242;28;20241;-80
2020/12/04 04:48:54;;;;;;;39.55;22.55;;;-0.20;99.90;;;;;;5078183;28;20179;-80
2020/12/04 04:51:21;;;;;;;32.67;20.95;;;-0.20;99.90;;;;;;5073286;28;20527;-79
2020/12/04 04:53:52;;;;;;;45.08;25.00;;;-0.20;99.90;;;;;;5059305;28;20226;-80
2020/12/04 04:56:19;;;;;;;39.13;21.85;;;-0.20;99.90;;;;;;5058644;28;20219;-79
2020/12/04 04:58:45;;;;;;;40.17;22.90;;;-0.20;99.90;;;;;;5058226;28;20203;-80
2020/12/04 05:01:12;;;;;;;38.03;23.75;;;-0.20;99.90;;;;;;5058006;28;20229;-81
2020/12/04 05:03:38;;;;;;;37.63;23.33;;;-0.20;99.90;;;;;;5057722;28;20211;-80
2020/12/04 05:06:04;;;;;;;41.00;21.48;;;-0.10;99.90;;;;;;5057866;28;20214;-79
2020/12/04 05:08:31;;;;;;;38.15;23.35;;;-0.10;99.90;;;;;;5058109;28;20219;-80
2020/12/04 05:11:08;;;;;;;36.38;23.70;;;-0.10;99.90;;;;;;5058151;28;20202;-79
2020/12/04 05:13:35;;;;;;;34.17;20.23;;;0.00;99.90;;;;;;5057949;28;20186;-79
2020/12/04 05:16:02;;;;;;;38.95;22.85;;;0.00;99.90;;;;;;5074511;28;20270;-79
2020/12/04 05:18:30;;;;;;;34.67;21.80;;;0.00;99.90;;;;;;5078911;28;20219;-78
2020/12/04 05:20:58;;;;;;;35.28;21.05;;;0.00;99.90;;;;;;5079002;28;20250;-79
2020/12/04 05:23:27;;;;;;;38.08;21.38;;;0.00;99.90;;;;;;5075498;28;20206;-80
2020/12/04 05:25:55;;;;;;;39.20;23.00;;;0.10;99.90;;;;;;5066984;28;20454;-79
2020/12/04 05:28:23;;;;;;;38.58;24.02;;;0.00;99.90;;;;;;5059542;28;20230;-80
2020/12/04 05:31:04;;;;;;;33.70;20.60;;;0.10;99.90;;;;;;5058397;28;20198;-80
2020/12/04 05:33:30;;;;;;;36.22;21.73;;;0.10;99.90;;;;;;5077504;28;20197;-79
2020/12/04 05:35:57;;;;;;;40.78;23.15;;;0.10;99.90;;;;;;5078687;28;20250;-80
2020/12/04 05:38:23;;;;;;;38.95;22.42;;;0.20;99.90;;;;;;5073457;28;20728;-80
2020/12/04 05:40:50;;;;;;;43.92;23.45;;;0.10;99.90;;;;;;5062780;28;20258;-80
2020/12/04 05:43:29;;;;;;;44.67;22.90;;;0.10;99.90;;;;;;5057965;28;20202;-80
2020/12/04 05:46:11;;;;;;;40.67;22.63;;;0.10;99.90;;;;;;5057787;28;20632;-79
2020/12/04 05:48:38;;;;;;;37.20;22.50;;;0.20;99.90;;;;;;5056294;28;21003;-79
2020/12/04 05:51:04;;;;;;;44.95;23.33;;;0.20;99.90;;;;;;5056730;28;20441;-80
2020/12/04 05:53:30;;;;;;;43.63;25.13;;;0.30;99.90;;;;;;5054711;28;20485;-79
2020/12/04 05:55:57;;;;;;;36.97;22.20;;;0.30;99.90;;;;;;5054760;28;20210;-80
2020/12/04 05:58:26;;;;;;;37.42;21.95;;;0.30;99.90;;;;;;5056786;28;20788;-80
2020/12/04 06:00:52;;;;;;;33.92;20.98;;;0.40;99.90;;;;;;5059469;28;20234;-78
2020/12/04 06:03:19;;;;;;;37.58;24.05;;;0.40;99.90;;;;;;5070965;28;20207;-79
2020/12/04 06:05:46;;;;;;;36.13;22.85;;;0.40;99.90;;;;;;5107889;22;20322;-79
2020/12/04 06:08:13;;;;;;;39.00;22.45;;;0.50;99.90;;;;;;5059400;28;20308;-79
2020/12/04 06:10:40;;;;;;;33.35;21.58;;;0.50;99.90;;;;;;5057716;28;20257;-80
2020/12/04 06:13:06;;;;;;;37.88;22.63;;;0.50;99.90;;;;;;5057964;28;20228;-80
2020/12/04 06:15:33;;;;;;;40.63;22.95;;;0.50;99.90;;;;;;5057623;28;20214;-80
2020/12/04 06:18:05;;;;;;;32.97;20.73;;;0.50;99.90;;;;;;5066675;28;20313;-79
2020/12/04 06:20:46;;;;;;;40.65;22.98;;;0.50;99.90;;;;;;5090835;22;20227;-78
2020/12/04 06:23:14;;;;;;;34.53;20.80;;;0.50;99.90;;;;;;5064503;28;20245;-79
2020/12/04 06:26:04;;;;;;;31.23;21.65;;;0.60;99.90;;;;;;5060201;28;20260;-79
2020/12/04 06:28:34;;;;;;;37.60;22.67;;;0.60;99.90;;;;;;5058170;28;20210;-79
2020/12/04 06:31:06;;;;;;;31.98;20.63;;;0.70;99.90;;;;;;5057135;28;20229;-79
2020/12/04 06:33:35;;;;;;;37.17;22.10;;;0.70;99.90;;;;;;5056883;28;20198;-79
2020/12/04 06:36:03;;;;;;;34.75;22.00;;;0.70;99.90;;;;;;5057649;28;20211;-79
2020/12/04 06:38:44;;;;;;;39.13;21.70;;;0.80;99.90;;;;;;5058241;28;20199;-80
2020/12/04 06:41:31;;;;;;;33.95;20.45;;;0.80;99.90;;;;;;5056792;28;20235;-79
2020/12/04 06:43:59;;;;;;;46.15;26.67;;;1.00;99.90;;;;;;5057440;28;20187;-80
2020/12/04 06:46:38;;;;;;;37.45;22.20;;;1.00;99.90;;;;;;5059378;28;20289;-80
2020/12/04 06:49:12;;;;;;;31.42;18.55;;;1.00;99.90;;;;;;5061463;28;20639;-79
2020/12/04 06:51:41;;;;;;;32.47;22.15;;;1.00;99.90;;;;;;5059737;28;20205;-80
2020/12/04 06:54:08;;;;;;;31.05;19.80;;;1.00;99.90;;;;;;5060455;28;20210;-80
2020/12/04 06:56:35;;;;;;;31.63;20.02;;;1.10;99.90;;;;;;5059850;28;20191;-80
2020/12/04 06:59:02;;;;;;;37.58;23.20;;;1.20;99.90;;;;;;5059030;28;20670;-79
2020/12/04 07:01:30;;;;;;;33.17;21.25;;;1.20;99.90;;;;;;5058388;28;20199;-79
2020/12/04 07:03:58;;;;;;;29.73;20.25;;;1.20;99.90;;;;;;5056665;28;20220;-79
2020/12/04 07:06:25;;;;;;;35.25;21.60;;;1.20;99.90;;;;;;5055531;28;20253;-79
2020/12/04 07:08:56;;;;;;;32.55;20.15;;;1.20;99.90;;;;;;5055835;28;20271;-80
2020/12/04 07:11:24;;;;;;;33.55;20.55;;;1.20;99.90;;;;;;5057991;28;20275;-80
2020/12/04 07:13:52;;;;;;;33.75;19.88;;;1.30;99.90;;;;;;5060580;28;20238;-80
2020/12/04 07:16:18;;;;;;;32.25;20.05;;;1.30;99.90;;;;;;5060261;28;20229;-80
2020/12/04 07:18:49;;;;;;;28.67;19.25;;;1.30;99.90;;;;;;5060515;28;20643;-79
2020/12/04 07:21:16;;;;;;;28.77;20.02;;;1.30;99.90;;;;;;5060079;28;20714;-79
2020/12/04 07:23:43;;;;;;;37.83;21.63;;;1.40;99.90;;;;;;5059756;28;20290;-79
2020/12/04 07:26:16;;;;;;;30.73;19.27;;;1.40;99.90;;;;;;5060353;28;20211;-79
2020/12/04 07:28:44;;;;;;;26.92;18.08;;;1.40;99.90;;;;;;5060439;28;20195;-80
2020/12/04 07:31:17;;;;;;;29.35;19.88;;;1.40;99.90;;;;;;5059659;28;20249;-79
2020/12/04 07:33:54;;;;;;;37.72;21.05;;;1.40;99.90;;;;;;5060550;28;20207;-80
2020/12/04 07:36:21;;;;;;;38.47;23.15;;;1.40;99.90;;;;;;5061996;28;20221;-79
2020/12/04 07:38:52;;;;;;;31.55;20.67;;;1.30;99.90;;;;;;5059200;28;20207;-79
2020/12/04 07:41:30;;;;;;;30.00;18.88;;;1.30;99.90;;;;;;5059994;28;20229;-79
2020/12/04 07:44:01;;;;;;;34.15;20.98;;;1.30;99.90;;;;;;5059029;28;20616;-79
2020/12/04 07:46:27;;;;;;;27.98;19.95;;;1.40;99.90;;;;;;5057937;28;20203;-79
2020/12/04 07:49:02;;;;;;;29.67;20.08;;;1.40;99.90;;;;;;5058829;28;20230;-80
2020/12/04 07:51:30;;;;;;;33.72;20.70;;;1.40;99.90;;;;;;5058520;28;20233;-79
2020/12/04 07:53:57;;;;;;;30.73;22.23;;;1.30;99.90;;;;;;5058740;28;20206;-80
2020/12/04 07:56:26;;;;;;;37.30;23.40;;;1.40;99.90;;;;;;5058752;28;20226;-80
2020/12/04 07:59:01;;;;;;;34.58;21.02;;;1.50;99.90;;;;;;5059520;28;20279;-80
2020/12/04 08:01:28;;;;;;;31.77;21.20;;;1.50;99.90;;;;;;5062800;28;20301;-79
2020/12/04 08:03:55;;;;;;;35.53;21.92;;;1.60;99.90;;;;;;5058512;28;20290;-79
2020/12/04 08:06:23;;;;;;;41.63;23.08;;;1.70;99.90;;;;;;5058187;28;20187;-79
2020/12/04 08:09:05;;;;;;;36.20;21.40;;;1.70;99.90;;;;;;5059321;28;20183;-79
2020/12/04 08:11:33;;;;;;;37.25;22.90;;;1.80;99.90;;;;;;5059035;28;20183;-79
2020/12/04 08:14:03;;;;;;;34.83;21.17;;;1.80;99.90;;;;;;5059187;28;20191;-79
2020/12/04 08:16:30;;;;;;;45.58;25.15;;;1.90;99.90;;;;;;5060077;28;20187;-80
2020/12/04 08:19:03;;;;;;;40.13;23.05;;;1.90;99.90;;;;;;5059640;28;20193;-79
2020/12/04 08:21:29;;;;;;;34.58;20.98;;;1.80;99.90;;;;;;5063197;28;20691;-80
2020/12/04 08:23:56;;;;;;;36.95;25.60;;;1.80;99.90;;;;;;5059833;28;20245;-80
2020/12/04 08:26:22;;;;;;;39.80;23.13;;;1.90;99.90;;;;;;5059363;28;20215;-79
2020/12/04 08:28:54;;;;;;;34.40;23.08;;;1.90;99.90;;;;;;5059940;28;20209;-79
2020/12/04 08:31:25;;;;;;;32.88;21.23;;;1.90;99.90;;;;;;5058937;28;20763;-80
2020/12/04 08:33:51;;;;;;;30.65;21.20;;;1.90;99.90;;;;;;5059434;28;20245;-78
2020/12/04 08:36:18;;;;;;;37.17;22.00;;;2.00;99.90;;;;;;5060653;28;20199;-79
2020/12/04 08:38:53;;;;;;;29.25;19.40;;;2.00;99.90;;;;;;5058931;28;20203;-79
2020/12/04 08:41:20;;;;;;;30.25;19.08;;;2.10;99.90;;;;;;5041725;28;20622;-79
2020/12/04 08:43:49;;;;;;;30.98;19.23;;;2.10;99.90;;;;;;5064555;28;20210;-78
2020/12/04 08:46:16;;;;;;;35.35;20.85;;;2.10;99.90;;;;;;5068255;28;20202;-78
2020/12/04 08:48:43;;;;;;;36.10;20.30;;;2.20;99.90;;;;;;5072649;28;20219;-79
2020/12/04 08:51:11;;;;;;;27.40;18.00;;;2.20;99.90;;;;;;5077467;28;20222;-84
2020/12/04 08:53:38;;;;;;;30.50;20.25;;;2.30;99.90;;;;;;5075117;28;20207;-83
2020/12/04 08:56:05;;;;;;;29.13;19.40;;;2.50;99.90;;;;;;5074592;28;20205;-83
2020/12/04 08:58:31;;;;;;;31.92;19.30;;;2.60;99.90;;;;;;5075416;28;20259;-83
2020/12/04 09:00:59;;;;;;;30.63;19.40;;;2.70;99.90;;;;;;5075959;28;20261;-83
2020/12/04 09:03:27;;;;;;;28.77;19.52;;;2.80;99.90;;;;;;5075127;28;20226;-83
2020/12/04 09:05:55;;;;;;;27.35;18.70;;;2.80;99.90;;;;;;5075157;28;20207;-83
2020/12/04 09:08:22;;;;;;;23.55;17.13;;;3.00;99.90;;;;;;5075858;28;20207;-82
2020/12/04 09:10:48;;;;;;;23.40;17.55;;;3.00;99.90;;;;;;5072649;28;20250;-82
2020/12/04 09:13:15;;;;;;;27.30;17.85;;;3.10;99.90;;;;;;5069017;28;20668;-82
2020/12/04 09:15:42;;;;;;;28.85;21.35;;;3.00;99.90;;;;;;5064533;28;20203;-82
2020/12/04 09:18:08;;;;;;;26.58;18.83;;;3.00;99.90;;;;;;5048094;28;20251;-82
2020/12/04 09:20:35;;;;;;;30.92;19.38;;;3.00;99.90;;;;;;5062729;28;20227;-82
2020/12/04 09:23:02;;;;;;;30.20;19.02;;;3.00;99.90;;;;;;5062270;28;20203;-82
2020/12/04 09:25:33;;;;;;;28.90;18.58;;;3.00;99.90;;;;;;5063537;28;20211;-83
2020/12/04 09:27:59;;;;;;;28.08;18.30;;;3.00;99.90;;;;;;5063779;28;20215;-83
2020/12/04 09:30:25;;;;;;;29.23;18.05;;;3.10;99.90;;;;;;5063486;28;20300;-83
2020/12/04 09:32:52;;;;;;;23.63;16.25;;;3.20;99.90;;;;;;5069199;28;20286;-83
2020/12/04 09:35:19;;;;;;;26.73;18.85;;;3.30;99.90;;;;;;5073803;28;20218;-83
2020/12/04 09:37:48;;;;;;;26.42;19.80;;;3.40;99.90;;;;;;5072075;28;20611;-83
2020/12/04 09:40:16;;;;;;;25.52;18.00;;;3.40;99.90;;;;;;5072894;28;20295;-83
2020/12/04 09:42:44;;;;;;;23.05;15.82;;;3.50;99.90;;;;;;5074279;28;20227;-82
2020/12/04 09:45:12;;;;;;;22.48;16.48;;;3.50;99.90;;;;;;5072440;28;20206;-82
2020/12/04 09:47:39;;;;;;;28.38;17.77;;;3.60;99.90;;;;;;5066800;28;20218;-81
2020/12/04 09:50:10;;;;;;;24.63;18.27;;;3.60;99.90;;;;;;5063603;28;20219;-83
2020/12/04 09:52:36;;;;;;;27.70;16.45;;;3.60;99.90;;;;;;5063222;28;20703;-83
2020/12/04 09:55:04;;;;;;;25.42;16.67;;;3.70;99.90;;;;;;5063673;28;20206;-82
2020/12/04 09:57:32;;;;;;;29.42;19.17;;;3.70;99.90;;;;;;5063505;28;20266;-83
2020/12/04 09:59:59;;;;;;;26.23;17.90;;;3.70;99.90;;;;;;5062849;28;20223;-82
2020/12/04 10:02:25;;;;;;;27.00;18.05;;;3.80;99.90;;;;;;5063455;28;20260;-84
2020/12/04 10:04:52;;;;;;;22.35;17.13;;;3.90;99.90;;;;;;5062779;28;20637;-83
2020/12/04 10:07:18;;;;;;;24.52;18.48;;;3.90;99.90;;;;;;5064894;28;20207;-82
2020/12/04 10:09:44;;;;;;;22.88;16.38;;;3.90;99.90;;;;;;5062311;28;20254;-84
2020/12/04 10:12:11;;;;;;;24.83;17.25;;;3.80;99.90;;;;;;5062608;28;20251;-83
2020/12/04 10:14:41;;;;;;;22.95;17.48;;;3.80;99.90;;;;;;5062828;28;20184;-84
2020/12/04 10:17:08;;;;;;;22.70;17.05;;;3.70;99.90;;;;;;5062215;28;20225;-83
2020/12/04 10:19:35;;;;;;;25.65;18.05;;;3.80;99.90;;;;;;5061798;28;20226;-82
2020/12/04 10:22:01;;;;;;;27.73;17.88;;;3.80;99.90;;;;;;5061657;28;20198;-83
2020/12/04 10:24:27;;;;;;;26.67;17.40;;;3.80;99.90;;;;;;5062138;28;20203;-83
2020/12/04 10:26:54;;;;;;;31.38;19.65;;;3.90;99.90;;;;;;5063529;28;20218;-82
2020/12/04 10:29:22;;;;;;;29.23;19.20;;;3.80;99.90;;;;;;5061105;28;20719;-83
2020/12/04 10:31:48;;;;;;;28.42;16.33;;;3.90;99.90;;;;;;5062459;28;20298;-83
2020/12/04 10:34:16;;;;;;;27.83;17.38;;;3.80;99.90;;;;;;5061576;28;20209;-83
2020/12/04 10:36:43;;;;;;;23.65;16.98;;;3.70;99.90;;;;;;5062022;28;20229;-83
2020/12/04 10:39:11;;;;;;;27.50;17.38;;;3.80;99.90;;;;;;5061764;28;20253;-82
2020/12/04 10:41:40;;;;;;;23.98;17.88;;;3.70;99.90;;;;;;5061678;28;20641;-83
2020/12/04 10:44:09;;;;;;;25.70;17.73;;;3.80;99.90;;;;;;5061699;28;20218;-83
2020/12/04 10:46:37;;;;;;;27.52;18.88;;;3.80;99.90;;;;;;5061363;28;20214;-84
2020/12/04 10:49:04;;;;;;;28.75;19.30;;;3.80;99.90;;;;;;5061762;28;20241;-83
2020/12/04 10:51:31;;;;;;;27.23;19.60;;;3.80;99.90;;;;;;5062135;28;20203;-84
2020/12/04 10:53:57;;;;;;;24.17;18.95;;;3.80;99.90;;;;;;5062065;28;20698;-84
2020/12/04 10:56:24;;;;;;;26.55;17.00;;;4.00;99.90;;;;;;5061070;28;20217;-82
2020/12/04 10:58:52;;;;;;;25.08;18.08;;;4.00;99.90;;;;;;5061041;28;20206;-82
2020/12/04 11:01:25;;;;;;;26.75;17.00;;;4.00;99.90;;;;;;5062144;28;20235;-83
2020/12/04 11:06:37;;;;;;;23.35;17.02;;;4.00;99.90;;;;;;5061933;28;20226;-83
2020/12/04 11:09:03;;;;;;;24.23;16.10;;;4.00;99.90;;;;;;5060975;28;20233;-81
2020/12/04 11:11:30;;;;;;;24.63;17.23;;;4.00;99.90;;;;;;5061040;28;20226;-83
2020/12/04 11:13:57;;;;;;;27.88;18.55;;;4.00;99.90;;;;;;5062393;28;20206;-82
2020/12/04 11:16:23;;;;;;;27.80;19.35;;;4.10;99.90;;;;;;5061966;28;20214;-82
2020/12/04 11:18:50;;;;;;;26.30;16.92;;;4.20;99.90;;;;;;5061192;28;20238;-83
2020/12/04 11:21:17;;;;;;;24.30;18.38;;;4.40;99.90;;;;;;5061321;28;20710;-82
2020/12/04 11:23:43;;;;;;;26.20;17.45;;;4.30;99.90;;;;;;5061144;28;20207;-82
2020/12/04 11:26:10;;;;;;;25.10;16.88;;;4.30;99.90;;;;;;5061177;28;20219;-84
2020/12/04 11:28:36;;;;;;;26.38;18.48;;;4.30;99.90;;;;;;5061115;28;20241;-83
2020/12/04 11:31:03;;;;;;;28.70;19.35;;;4.30;99.90;;;;;;5060546;28;20246;-83
2020/12/04 11:33:29;;;;;;;28.83;18.40;;;4.30;99.90;;;;;;5062008;28;20198;-83
2020/12/04 11:35:56;;;;;;;21.85;16.90;;;4.40;99.90;;;;;;5060645;28;20279;-84
2020/12/04 11:38:23;;;;;;;23.58;17.08;;;4.50;99.90;;;;;;5060952;28;20203;-84
2020/12/04 11:40:49;;;;;;;23.65;17.55;;;4.60;99.90;;;;;;5061033;28;20602;-84
2020/12/04 11:43:16;;;;;;;23.55;15.48;;;4.60;99.90;;;;;;5060539;28;20259;-83
2020/12/04 11:45:42;;;;;;;25.55;15.52;;;4.60;99.90;;;;;;5062185;28;20234;-83
2020/12/04 11:48:09;;;;;;;23.92;17.08;;;4.70;99.90;;;;;;5061055;28;20266;-83
2020/12/04 11:50:35;;;;;;;24.98;16.83;;;4.70;99.90;;;;;;5062048;28;20251;-83
2020/12/04 11:53:01;;;;;;;28.25;17.85;;;4.70;99.90;;;;;;5062399;28;20214;-84
2020/12/04 11:55:29;;;;;;;22.85;15.77;;;4.70;99.90;;;;;;5063190;28;20597;-83
2020/12/04 11:57:55;;;;;;;20.52;15.80;;;4.70;99.90;;;;;;5067943;28;20228;-83
2020/12/04 12:00:21;;;;;;;24.58;17.25;;;4.70;99.90;;;;;;5074254;28;20261;-83
2020/12/04 12:02:48;;;;;;;25.55;17.85;;;4.70;99.90;;;;;;5075359;28;20195;-82
2020/12/04 12:05:14;;;;;;;24.02;16.55;;;4.70;99.90;;;;;;5080211;28;20183;-82
2020/12/04 12:07:42;;;;;;;24.17;16.80;;;4.70;99.90;;;;;;5079014;28;20206;-82
2020/12/04 12:10:09;;;;;;;22.63;17.27;;;4.60;99.90;;;;;;5078654;28;20306;-82
2020/12/04 12:12:36;;;;;;;23.13;16.70;;;4.60;99.90;;;;;;5078626;28;20246;-83
2020/12/04 12:15:03;;;;;;;24.85;18.35;;;4.70;99.90;;;;;;5078374;28;20207;-82
2020/12/04 12:17:29;;;;;;;24.92;16.75;;;4.70;99.90;;;;;;5075750;28;20229;-83
2020/12/04 12:19:57;;;;;;;25.27;18.02;;;4.60;99.90;;;;;;5095571;22;20230;-81
2020/12/04 12:22:23;;;;;;;26.45;16.90;;;4.60;99.90;;;;;;5068019;28;20199;-81
2020/12/04 12:24:49;;;;;;;23.05;17.58;;;4.70;99.90;;;;;;5076446;28;20251;-81
2020/12/04 12:27:16;;;;;;;22.33;16.15;;;4.70;99.90;;;;;;5078860;28;20191;-81
2020/12/04 12:29:45;;;;;;;21.30;16.38;;;4.70;99.90;;;;;;5077949;28;20845;-81
2020/12/04 12:32:14;;;;;;;22.02;15.75;;;4.70;99.90;;;;;;5077361;28;20198;-82
2020/12/04 12:37:26;;;;;;;28.77;17.25;;;4.90;99.90;;;;;;5079833;28;20230;-80
2020/12/04 12:39:52;;;;;;;24.90;18.17;;;4.90;99.90;;;;;;5079528;28;20231;-80
2020/12/04 12:42:19;;;;;;;26.42;17.92;;;4.80;99.90;;;;;;5079438;28;20242;-80